sensor_id;sensor_type;location;lat;lon;timestamp;temperature;humidity
68354;DHT22;55274;43.060;25.618;2023-02-21T00:02:20;2.30;93.90
68354;DHT22;55274;43.060;25.618;2023-02-21T00:05:04;2.30;94.30
68354;DHT22;55274;43.060;25.618;2023-02-21T00:07:48;2.30;94.40
68354;DHT22;55274;43.060;25.618;2023-02-21T00:10:32;2.30;94.70
68354;DHT22;55274;43.060;25.618;2023-02-21T00:13:17;2.30;95.10
68354;DHT22;55274;43.060;25.618;2023-02-21T00:16:01;2.30;95.70
68354;DHT22;55274;43.060;25.618;2023-02-21T00:18:45;2.40;95.90
68354;DHT22;55274;43.060;25.618;2023-02-21T00:21:30;2.40;96.50
68354;DHT22;55274;43.060;25.618;2023-02-21T00:24:16;2.40;96.10
68354;DHT22;55274;43.060;25.618;2023-02-21T00:27:01;2.40;96.60
68354;DHT22;55274;43.060;25.618;2023-02-21T00:29:47;2.40;96.80
68354;DHT22;55274;43.060;25.618;2023-02-21T00:32:31;2.40;97.40
68354;DHT22;55274;43.060;25.618;2023-02-21T00:35:16;2.40;97.50
68354;DHT22;55274;43.060;25.618;2023-02-21T00:38:00;2.40;97.70
68354;DHT22;55274;43.060;25.618;2023-02-21T00:40:44;2.40;97.30
68354;DHT22;55274;43.060;25.618;2023-02-21T00:43:30;2.40;97.40
68354;DHT22;55274;43.060;25.618;2023-02-21T00:46:15;2.40;98.20
68354;DHT22;55274;43.060;25.618;2023-02-21T00:49:00;2.40;98.70
68354;DHT22;55274;43.060;25.618;2023-02-21T00:51:44;2.40;98.80
68354;DHT22;55274;43.060;25.618;2023-02-21T00:54:28;2.40;99.30
68354;DHT22;55274;43.060;25.618;2023-02-21T00:57:13;2.40;99.60
68354;DHT22;55274;43.060;25.618;2023-02-21T00:59:57;2.30;99.70
68354;DHT22;55274;43.060;25.618;2023-02-21T01:02:42;2.40;99.60
68354;DHT22;55274;43.060;25.618;2023-02-21T01:05:26;2.40;99.70
68354;DHT22;55274;43.060;25.618;2023-02-21T01:08:11;2.40;99.90
68354;DHT22;55274;43.060;25.618;2023-02-21T01:10:55;2.30;99.90
68354;DHT22;55274;43.060;25.618;2023-02-21T01:13:40;2.30;99.90
68354;DHT22;55274;43.060;25.618;2023-02-21T01:16:27;2.40;99.90
68354;DHT22;55274;43.060;25.618;2023-02-21T01:19:12;2.40;99.90
68354;DHT22;55274;43.060;25.618;2023-02-21T01:21:57;2.40;99.90
68354;DHT22;55274;43.060;25.618;2023-02-21T01:24:41;2.40;99.90
68354;DHT22;55274;43.060;25.618;2023-02-21T01:27:25;2.40;99.90
68354;DHT22;55274;43.060;25.618;2023-02-21T01:30:10;2.40;99.90
68354;DHT22;55274;43.060;25.618;2023-02-21T01:32:54;2.30;99.90
68354;DHT22;55274;43.060;25.618;2023-02-21T01:35:38;2.20;99.90
68354;DHT22;55274;43.060;25.618;2023-02-21T01:38:23;2.30;99.90
68354;DHT22;55274;43.060;25.618;2023-02-21T01:41:07;2.30;99.90
68354;DHT22;55274;43.060;25.618;2023-02-21T01:44:03;2.30;99.90
68354;DHT22;55274;43.060;25.618;2023-02-21T01:46:48;2.30;99.90
68354;DHT22;55274;43.060;25.618;2023-02-21T01:49:34;2.40;99.90
68354;DHT22;55274;43.060;25.618;2023-02-21T01:52:20;2.30;99.90
68354;DHT22;55274;43.060;25.618;2023-02-21T01:55:06;2.40;99.90
68354;DHT22;55274;43.060;25.618;2023-02-21T01:57:51;2.40;99.90
68354;DHT22;55274;43.060;25.618;2023-02-21T02:00:37;2.30;99.90
68354;DHT22;55274;43.060;25.618;2023-02-21T02:03:21;2.30;99.90
68354;DHT22;55274;43.060;25.618;2023-02-21T02:06:09;2.30;99.90
68354;DHT22;55274;43.060;25.618;2023-02-21T02:08:55;2.20;99.90
68354;DHT22;55274;43.060;25.618;2023-02-21T02:28:45;2.20;99.90
68354;DHT22;55274;43.060;25.618;2023-02-21T02:38:00;2.10;99.90
68354;DHT22;55274;43.060;25.618;2023-02-21T02:43:49;2.10;99.90
68354;DHT22;55274;43.060;25.618;2023-02-21T02:45:45;2.10;99.90
68354;DHT22;55274;43.060;25.618;2023-02-21T02:50:47;2.00;99.90
68354;DHT22;55274;43.060;25.618;2023-02-21T02:53:17;2.00;99.90
68354;DHT22;55274;43.060;25.618;2023-02-21T02:55:51;1.90;99.90
68354;DHT22;55274;43.060;25.618;2023-02-21T02:58:19;1.90;99.90
68354;DHT22;55274;43.060;25.618;2023-02-21T03:01:06;1.90;99.90
68354;DHT22;55274;43.060;25.618;2023-02-21T03:03:56;1.90;99.90
68354;DHT22;55274;43.060;25.618;2023-02-21T03:07:12;2.00;99.90
68354;DHT22;55274;43.060;25.618;2023-02-21T03:09:59;2.00;99.90
68354;DHT22;55274;43.060;25.618;2023-02-21T03:15:44;2.00;99.90
68354;DHT22;55274;43.060;25.618;2023-02-21T03:20:56;2.00;99.90
68354;DHT22;55274;43.060;25.618;2023-02-21T03:23:26;2.00;99.90
68354;DHT22;55274;43.060;25.618;2023-02-21T03:25:55;2.10;99.90
68354;DHT22;55274;43.060;25.618;2023-02-21T03:28:21;2.10;99.90
68354;DHT22;55274;43.060;25.618;2023-02-21T03:30:52;2.10;99.90
68354;DHT22;55274;43.060;25.618;2023-02-21T03:33:18;2.10;99.90
68354;DHT22;55274;43.060;25.618;2023-02-21T03:35:44;2.10;99.90
68354;DHT22;55274;43.060;25.618;2023-02-21T03:38:10;2.10;99.90
68354;DHT22;55274;43.060;25.618;2023-02-21T03:40:36;1.90;99.90
68354;DHT22;55274;43.060;25.618;2023-02-21T03:43:03;1.90;99.90
68354;DHT22;55274;43.060;25.618;2023-02-21T03:45:33;1.90;99.90
68354;DHT22;55274;43.060;25.618;2023-02-21T03:47:59;1.90;99.90
68354;DHT22;55274;43.060;25.618;2023-02-21T03:50:24;2.00;99.90
68354;DHT22;55274;43.060;25.618;2023-02-21T03:52:50;2.00;99.90
68354;DHT22;55274;43.060;25.618;2023-02-21T03:55:16;2.00;99.90
68354;DHT22;55274;43.060;25.618;2023-02-21T03:57:42;2.00;99.90
68354;DHT22;55274;43.060;25.618;2023-02-21T04:00:09;2.00;99.90
68354;DHT22;55274;43.060;25.618;2023-02-21T04:02:35;2.00;99.90
68354;DHT22;55274;43.060;25.618;2023-02-21T04:05:00;2.00;99.90
68354;DHT22;55274;43.060;25.618;2023-02-21T04:07:26;2.00;99.90
68354;DHT22;55274;43.060;25.618;2023-02-21T04:09:52;2.00;99.90
68354;DHT22;55274;43.060;25.618;2023-02-21T04:12:18;2.00;99.90
68354;DHT22;55274;43.060;25.618;2023-02-21T04:14:43;2.00;99.90
68354;DHT22;55274;43.060;25.618;2023-02-21T04:17:09;1.90;99.90
68354;DHT22;55274;43.060;25.618;2023-02-21T04:19:35;2.00;99.90
68354;DHT22;55274;43.060;25.618;2023-02-21T04:22:01;2.00;99.90
68354;DHT22;55274;43.060;25.618;2023-02-21T04:24:27;1.90;99.90
68354;DHT22;55274;43.060;25.618;2023-02-21T04:26:53;1.90;99.90
68354;DHT22;55274;43.060;25.618;2023-02-21T04:29:19;1.90;99.90
68354;DHT22;55274;43.060;25.618;2023-02-21T04:31:44;1.90;99.90
68354;DHT22;55274;43.060;25.618;2023-02-21T04:34:10;1.90;99.90
68354;DHT22;55274;43.060;25.618;2023-02-21T04:36:36;1.90;99.90
68354;DHT22;55274;43.060;25.618;2023-02-21T04:39:03;1.90;99.90
68354;DHT22;55274;43.060;25.618;2023-02-21T04:41:30;1.80;99.90
68354;DHT22;55274;43.060;25.618;2023-02-21T04:43:55;1.80;99.90
68354;DHT22;55274;43.060;25.618;2023-02-21T04:46:21;1.80;99.90
68354;DHT22;55274;43.060;25.618;2023-02-21T04:48:49;1.70;99.90
68354;DHT22;55274;43.060;25.618;2023-02-21T04:51:17;1.70;99.90
68354;DHT22;55274;43.060;25.618;2023-02-21T04:53:45;1.70;99.90
68354;DHT22;55274;43.060;25.618;2023-02-21T04:56:11;1.70;99.90
68354;DHT22;55274;43.060;25.618;2023-02-21T04:58:37;1.70;99.90
68354;DHT22;55274;43.060;25.618;2023-02-21T05:01:03;1.60;99.90
68354;DHT22;55274;43.060;25.618;2023-02-21T05:03:29;1.60;99.90
68354;DHT22;55274;43.060;25.618;2023-02-21T05:05:55;1.60;99.90
68354;DHT22;55274;43.060;25.618;2023-02-21T05:08:20;1.70;99.90
68354;DHT22;55274;43.060;25.618;2023-02-21T05:10:48;1.60;99.90
68354;DHT22;55274;43.060;25.618;2023-02-21T05:13:14;1.60;99.90
68354;DHT22;55274;43.060;25.618;2023-02-21T05:15:40;1.60;99.90
68354;DHT22;55274;43.060;25.618;2023-02-21T05:18:06;1.60;99.90
68354;DHT22;55274;43.060;25.618;2023-02-21T05:20:32;1.60;99.90
68354;DHT22;55274;43.060;25.618;2023-02-21T05:22:58;1.60;99.90
68354;DHT22;55274;43.060;25.618;2023-02-21T05:25:23;1.60;99.90
68354;DHT22;55274;43.060;25.618;2023-02-21T05:27:52;1.70;99.90
68354;DHT22;55274;43.060;25.618;2023-02-21T05:30:20;1.70;99.90
68354;DHT22;55274;43.060;25.618;2023-02-21T05:32:46;1.70;99.90
68354;DHT22;55274;43.060;25.618;2023-02-21T05:35:14;1.80;99.90
68354;DHT22;55274;43.060;25.618;2023-02-21T05:37:40;1.80;99.90
68354;DHT22;55274;43.060;25.618;2023-02-21T05:40:06;1.80;99.90
68354;DHT22;55274;43.060;25.618;2023-02-21T05:42:32;1.80;99.90
68354;DHT22;55274;43.060;25.618;2023-02-21T05:44:58;1.90;99.90
68354;DHT22;55274;43.060;25.618;2023-02-21T05:47:24;1.90;99.90
68354;DHT22;55274;43.060;25.618;2023-02-21T05:49:49;1.90;99.90
68354;DHT22;55274;43.060;25.618;2023-02-21T05:52:16;2.00;99.90
68354;DHT22;55274;43.060;25.618;2023-02-21T05:54:42;2.00;99.90
68354;DHT22;55274;43.060;25.618;2023-02-21T05:57:08;2.10;99.90
68354;DHT22;55274;43.060;25.618;2023-02-21T05:59:34;2.10;99.90
68354;DHT22;55274;43.060;25.618;2023-02-21T06:02:00;2.10;99.90
68354;DHT22;55274;43.060;25.618;2023-02-21T06:04:26;2.30;99.90
68354;DHT22;55274;43.060;25.618;2023-02-21T06:06:51;2.30;99.90
68354;DHT22;55274;43.060;25.618;2023-02-21T06:09:18;2.40;99.90
68354;DHT22;55274;43.060;25.618;2023-02-21T06:11:44;2.60;99.90
68354;DHT22;55274;43.060;25.618;2023-02-21T06:14:18;2.70;99.90
68354;DHT22;55274;43.060;25.618;2023-02-21T06:16:45;3.20;99.90
68354;DHT22;55274;43.060;25.618;2023-02-21T06:19:12;4.00;99.90
68354;DHT22;55274;43.060;25.618;2023-02-21T06:21:39;4.90;99.90
68354;DHT22;55274;43.060;25.618;2023-02-21T06:24:07;5.80;99.90
68354;DHT22;55274;43.060;25.618;2023-02-21T06:26:33;6.50;99.90
68354;DHT22;55274;43.060;25.618;2023-02-21T06:28:59;7.20;99.80
68354;DHT22;55274;43.060;25.618;2023-02-21T06:31:25;8.00;94.10
68354;DHT22;55274;43.060;25.618;2023-02-21T06:33:51;8.30;89.80
68354;DHT22;55274;43.060;25.618;2023-02-21T06:36:24;8.60;89.30
68354;DHT22;55274;43.060;25.618;2023-02-21T06:38:52;9.00;87.70
68354;DHT22;55274;43.060;25.618;2023-02-21T06:41:22;9.70;85.70
68354;DHT22;55274;43.060;25.618;2023-02-21T06:43:49;9.80;82.10
68354;DHT22;55274;43.060;25.618;2023-02-21T06:46:20;9.40;84.20
68354;DHT22;55274;43.060;25.618;2023-02-21T06:48:46;9.50;83.50
68354;DHT22;55274;43.060;25.618;2023-02-21T06:51:12;9.50;82.50
68354;DHT22;55274;43.060;25.618;2023-02-21T06:53:42;9.70;81.60
68354;DHT22;55274;43.060;25.618;2023-02-21T06:56:09;9.70;81.80
68354;DHT22;55274;43.060;25.618;2023-02-21T06:58:35;9.90;81.10
68354;DHT22;55274;43.060;25.618;2023-02-21T07:01:01;10.10;81.30
68354;DHT22;55274;43.060;25.618;2023-02-21T07:03:27;10.30;80.70
68354;DHT22;55274;43.060;25.618;2023-02-21T07:05:53;10.70;79.80
68354;DHT22;55274;43.060;25.618;2023-02-21T07:08:18;11.00;78.20
68354;DHT22;55274;43.060;25.618;2023-02-21T07:10:44;11.50;77.40
68354;DHT22;55274;43.060;25.618;2023-02-21T07:13:10;11.90;76.60
68354;DHT22;55274;43.060;25.618;2023-02-21T07:15:36;12.40;75.20
68354;DHT22;55274;43.060;25.618;2023-02-21T07:18:02;12.60;73.30
68354;DHT22;55274;43.060;25.618;2023-02-21T07:20:27;12.70;72.10
68354;DHT22;55274;43.060;25.618;2023-02-21T07:22:53;12.90;70.30
68354;DHT22;55274;43.060;25.618;2023-02-21T07:25:20;13.10;67.40
68354;DHT22;55274;43.060;25.618;2023-02-21T07:27:47;13.40;65.70
68354;DHT22;55274;43.060;25.618;2023-02-21T07:30:14;13.90;60.70
68354;DHT22;55274;43.060;25.618;2023-02-21T07:32:40;14.40;56.20
68354;DHT22;55274;43.060;25.618;2023-02-21T07:35:06;15.00;52.50
68354;DHT22;55274;43.060;25.618;2023-02-21T07:37:32;15.50;51.10
68354;DHT22;55274;43.060;25.618;2023-02-21T07:39:57;15.90;49.50
68354;DHT22;55274;43.060;25.618;2023-02-21T07:42:26;16.00;48.40
68354;DHT22;55274;43.060;25.618;2023-02-21T07:44:56;16.30;47.30
68354;DHT22;55274;43.060;25.618;2023-02-21T07:47:26;16.60;45.20
68354;DHT22;55274;43.060;25.618;2023-02-21T07:49:52;16.70;44.80
68354;DHT22;55274;43.060;25.618;2023-02-21T07:52:19;17.10;44.40
68354;DHT22;55274;43.060;25.618;2023-02-21T07:54:45;17.30;43.10
68354;DHT22;55274;43.060;25.618;2023-02-21T07:57:11;17.70;41.10
68354;DHT22;55274;43.060;25.618;2023-02-21T07:59:37;17.70;40.80
68354;DHT22;55274;43.060;25.618;2023-02-21T08:02:03;17.80;39.60
68354;DHT22;55274;43.060;25.618;2023-02-21T08:04:29;17.90;39.50
68354;DHT22;55274;43.060;25.618;2023-02-21T08:06:59;18.10;39.90
68354;DHT22;55274;43.060;25.618;2023-02-21T08:09:25;18.30;38.60
68354;DHT22;55274;43.060;25.618;2023-02-21T08:11:51;18.50;38.10
68354;DHT22;55274;43.060;25.618;2023-02-21T08:14:17;18.70;38.50
68354;DHT22;55274;43.060;25.618;2023-02-21T08:16:42;19.00;37.20
68354;DHT22;55274;43.060;25.618;2023-02-21T08:19:08;19.20;36.80
68354;DHT22;55274;43.060;25.618;2023-02-21T08:21:34;19.20;36.00
68354;DHT22;55274;43.060;25.618;2023-02-21T08:24:00;19.40;35.60
68354;DHT22;55274;43.060;25.618;2023-02-21T08:26:26;19.50;35.40
68354;DHT22;55274;43.060;25.618;2023-02-21T08:28:51;19.80;35.70
68354;DHT22;55274;43.060;25.618;2023-02-21T08:31:17;19.90;34.30
68354;DHT22;55274;43.060;25.618;2023-02-21T08:33:44;20.00;34.10
68354;DHT22;55274;43.060;25.618;2023-02-21T08:36:09;20.20;34.60
68354;DHT22;55274;43.060;25.618;2023-02-21T08:38:36;20.30;33.40
68354;DHT22;55274;43.060;25.618;2023-02-21T08:41:01;20.50;33.30
68354;DHT22;55274;43.060;25.618;2023-02-21T08:43:27;20.60;32.80
68354;DHT22;55274;43.060;25.618;2023-02-21T08:45:53;20.90;33.40
68354;DHT22;55274;43.060;25.618;2023-02-21T08:48:19;21.00;32.20
68354;DHT22;55274;43.060;25.618;2023-02-21T08:50:45;21.00;32.40
68354;DHT22;55274;43.060;25.618;2023-02-21T08:53:12;21.10;31.70
68354;DHT22;55274;43.060;25.618;2023-02-21T08:55:38;21.30;32.10
68354;DHT22;55274;43.060;25.618;2023-02-21T08:58:04;21.20;31.10
68354;DHT22;55274;43.060;25.618;2023-02-21T09:00:29;21.20;31.40
68354;DHT22;55274;43.060;25.618;2023-02-21T09:02:57;21.20;30.90
68354;DHT22;55274;43.060;25.618;2023-02-21T09:05:27;21.40;31.30
68354;DHT22;55274;43.060;25.618;2023-02-21T09:07:55;21.50;31.10
68354;DHT22;55274;43.060;25.618;2023-02-21T09:10:25;21.70;30.00
68354;DHT22;55274;43.060;25.618;2023-02-21T09:12:51;21.70;30.00
68354;DHT22;55274;43.060;25.618;2023-02-21T09:15:17;21.80;30.20
68354;DHT22;55274;43.060;25.618;2023-02-21T09:17:43;22.00;30.30
68354;DHT22;55274;43.060;25.618;2023-02-21T09:20:12;22.20;29.80
68354;DHT22;55274;43.060;25.618;2023-02-21T09:22:38;22.40;29.30
68354;DHT22;55274;43.060;25.618;2023-02-21T09:25:04;22.40;28.80
68354;DHT22;55274;43.060;25.618;2023-02-21T09:27:30;22.50;28.60
68354;DHT22;55274;43.060;25.618;2023-02-21T09:30:22;22.60;28.30
68354;DHT22;55274;43.060;25.618;2023-02-21T09:32:49;22.60;28.60
68354;DHT22;55274;43.060;25.618;2023-02-21T09:35:16;22.50;28.80
68354;DHT22;55274;43.060;25.618;2023-02-21T09:37:45;22.40;28.20
68354;DHT22;55274;43.060;25.618;2023-02-21T09:42:57;22.20;28.60
68354;DHT22;55274;43.060;25.618;2023-02-21T09:45:25;22.20;28.40
68354;DHT22;55274;43.060;25.618;2023-02-21T09:47:53;22.20;29.00
68354;DHT22;55274;43.060;25.618;2023-02-21T09:50:26;22.40;29.00
68354;DHT22;55274;43.060;25.618;2023-02-21T09:52:56;22.40;28.80
68354;DHT22;55274;43.060;25.618;2023-02-21T09:57:52;22.70;29.40
68354;DHT22;55274;43.060;25.618;2023-02-21T10:00:21;22.80;28.80
68354;DHT22;55274;43.060;25.618;2023-02-21T10:10:31;22.90;28.30
68354;DHT22;55274;43.060;25.618;2023-02-21T10:16:28;23.00;28.90
68354;DHT22;55274;43.060;25.618;2023-02-21T10:19:17;23.40;28.20
68354;DHT22;55274;43.060;25.618;2023-02-21T10:21:46;23.40;28.10
68354;DHT22;55274;43.060;25.618;2023-02-21T10:24:15;23.50;28.00
68354;DHT22;55274;43.060;25.618;2023-02-21T10:27:07;23.40;27.90
68354;DHT22;55274;43.060;25.618;2023-02-21T10:29:55;23.10;28.30
68354;DHT22;55274;43.060;25.618;2023-02-21T10:32:23;22.70;28.60
68354;DHT22;55274;43.060;25.618;2023-02-21T10:34:50;22.40;29.10
68354;DHT22;55274;43.060;25.618;2023-02-21T10:37:46;22.40;29.10
68354;DHT22;55274;43.060;25.618;2023-02-21T10:40:37;22.50;29.30
68354;DHT22;55274;43.060;25.618;2023-02-21T10:43:12;22.70;29.20
68354;DHT22;55274;43.060;25.618;2023-02-21T10:48:36;22.70;28.30
68354;DHT22;55274;43.060;25.618;2023-02-21T10:51:15;22.50;28.70
68354;DHT22;55274;43.060;25.618;2023-02-21T10:53:46;22.40;28.90
68354;DHT22;55274;43.060;25.618;2023-02-21T10:58:47;22.30;29.00
68354;DHT22;55274;43.060;25.618;2023-02-21T11:06:48;22.00;29.50
68354;DHT22;55274;43.060;25.618;2023-02-21T11:12:21;21.80;29.30
68354;DHT22;55274;43.060;25.618;2023-02-21T11:17:29;22.30;29.50
68354;DHT22;55274;43.060;25.618;2023-02-21T11:22:45;22.40;28.40
68354;DHT22;55274;43.060;25.618;2023-02-21T11:27:40;22.40;27.60
68354;DHT22;55274;43.060;25.618;2023-02-21T11:30:20;22.30;28.20
68354;DHT22;55274;43.060;25.618;2023-02-21T11:32:55;22.40;27.80
68354;DHT22;55274;43.060;25.618;2023-02-21T11:35:25;22.60;28.20
68354;DHT22;55274;43.060;25.618;2023-02-21T11:37:54;22.40;27.50
68354;DHT22;55274;43.060;25.618;2023-02-21T11:42:49;22.50;27.60
68354;DHT22;55274;43.060;25.618;2023-02-21T11:45:27;22.70;28.40
68354;DHT22;55274;43.060;25.618;2023-02-21T11:48:00;22.80;27.80
68354;DHT22;55274;43.060;25.618;2023-02-21T11:50:34;22.90;28.20
68354;DHT22;55274;43.060;25.618;2023-02-21T11:53:13;22.90;27.70
68354;DHT22;55274;43.060;25.618;2023-02-21T11:55:41;22.90;28.30
68354;DHT22;55274;43.060;25.618;2023-02-21T11:58:22;22.80;27.70
68354;DHT22;55274;43.060;25.618;2023-02-21T12:01:13;22.80;27.00
68354;DHT22;55274;43.060;25.618;2023-02-21T12:07:15;22.80;27.10
68354;DHT22;55274;43.060;25.618;2023-02-21T12:09:49;22.70;27.10
68354;DHT22;55274;43.060;25.618;2023-02-21T12:15:15;22.90;28.00
68354;DHT22;55274;43.060;25.618;2023-02-21T12:18:14;23.00;28.00
68354;DHT22;55274;43.060;25.618;2023-02-21T12:20:48;22.90;27.50
68354;DHT22;55274;43.060;25.618;2023-02-21T12:31:37;22.60;28.10
68354;DHT22;55274;43.060;25.618;2023-02-21T12:41:54;22.20;28.40
68354;DHT22;55274;43.060;25.618;2023-02-21T12:47:15;22.30;29.00
68354;DHT22;55274;43.060;25.618;2023-02-21T12:55:40;21.90;29.30
68354;DHT22;55274;43.060;25.618;2023-02-21T12:58:29;21.80;28.80
68354;DHT22;55274;43.060;25.618;2023-02-21T13:01:08;21.80;29.60
68354;DHT22;55274;43.060;25.618;2023-02-21T13:04:13;21.80;29.70
68354;DHT22;55274;43.060;25.618;2023-02-21T13:06:56;21.70;29.50
68354;DHT22;55274;43.060;25.618;2023-02-21T13:09:36;21.90;30.40
68354;DHT22;55274;43.060;25.618;2023-02-21T13:12:22;21.90;29.60
68354;DHT22;55274;43.060;25.618;2023-02-21T13:17:21;21.80;29.40
68354;DHT22;55274;43.060;25.618;2023-02-21T13:19:51;21.80;29.80
68354;DHT22;55274;43.060;25.618;2023-02-21T13:25:52;21.50;29.80
68354;DHT22;55274;43.060;25.618;2023-02-21T13:28:25;21.40;30.20
68354;DHT22;55274;43.060;25.618;2023-02-21T13:31:03;21.40;30.50
68354;DHT22;55274;43.060;25.618;2023-02-21T13:33:41;21.40;30.70
68354;DHT22;55274;43.060;25.618;2023-02-21T13:36:21;21.30;30.20
68354;DHT22;55274;43.060;25.618;2023-02-21T13:41:55;21.30;30.10
68354;DHT22;55274;43.060;25.618;2023-02-21T13:44:43;21.40;30.10
68354;DHT22;55274;43.060;25.618;2023-02-21T13:47:15;21.50;29.90
68354;DHT22;55274;43.060;25.618;2023-02-21T13:49:52;21.50;29.90
68354;DHT22;55274;43.060;25.618;2023-02-21T14:05:20;21.20;30.30
68354;DHT22;55274;43.060;25.618;2023-02-21T14:10:53;21.20;29.80
68354;DHT22;55274;43.060;25.618;2023-02-21T14:21:29;20.80;30.40
68354;DHT22;55274;43.060;25.618;2023-02-21T14:29:26;20.60;31.30
68354;DHT22;55274;43.060;25.618;2023-02-21T14:32:22;20.50;31.80
68354;DHT22;55274;43.060;25.618;2023-02-21T14:37:31;20.30;31.30
68354;DHT22;55274;43.060;25.618;2023-02-21T15:12:56;18.90;33.70
68354;DHT22;55274;43.060;25.618;2023-02-21T15:20:25;18.70;34.10
68354;DHT22;55274;43.060;25.618;2023-02-21T15:23:15;18.70;34.40
68354;DHT22;55274;43.060;25.618;2023-02-21T15:25:51;18.70;34.10
68354;DHT22;55274;43.060;25.618;2023-02-21T15:28:24;18.60;34.70
68354;DHT22;55274;43.060;25.618;2023-02-21T15:31:07;18.50;34.90
68354;DHT22;55274;43.060;25.618;2023-02-21T15:33:42;18.50;35.30
68354;DHT22;55274;43.060;25.618;2023-02-21T15:36:16;18.40;35.20
68354;DHT22;55274;43.060;25.618;2023-02-21T15:44:20;18.10;36.20
68354;DHT22;55274;43.060;25.618;2023-02-21T15:49:56;17.80;39.20
68354;DHT22;55274;43.060;25.618;2023-02-21T15:52:46;17.70;38.60
68354;DHT22;55274;43.060;25.618;2023-02-21T16:02:48;17.20;40.70
68354;DHT22;55274;43.060;25.618;2023-02-21T16:05:25;17.20;39.40
68354;DHT22;55274;43.060;25.618;2023-02-21T16:07:52;17.10;40.60
68354;DHT22;55274;43.060;25.618;2023-02-21T16:10:22;17.00;41.60
68354;DHT22;55274;43.060;25.618;2023-02-21T16:12:58;16.80;41.80
68354;DHT22;55274;43.060;25.618;2023-02-21T16:15:30;16.80;41.40
68354;DHT22;55274;43.060;25.618;2023-02-21T16:18:02;16.70;42.80
68354;DHT22;55274;43.060;25.618;2023-02-21T16:20:34;16.50;43.20
68354;DHT22;55274;43.060;25.618;2023-02-21T16:23:25;16.40;43.70
68354;DHT22;55274;43.060;25.618;2023-02-21T16:26:18;16.20;44.90
68354;DHT22;55274;43.060;25.618;2023-02-21T16:28:45;16.00;45.30
68354;DHT22;55274;43.060;25.618;2023-02-21T16:31:23;15.90;46.10
68354;DHT22;55274;43.060;25.618;2023-02-21T16:33:49;15.70;44.90
68354;DHT22;55274;43.060;25.618;2023-02-21T16:36:20;15.60;45.10
68354;DHT22;55274;43.060;25.618;2023-02-21T16:38:47;15.50;45.20
68354;DHT22;55274;43.060;25.618;2023-02-21T16:41:13;15.30;45.00
68354;DHT22;55274;43.060;25.618;2023-02-21T16:43:39;15.20;46.90
68354;DHT22;55274;43.060;25.618;2023-02-21T16:46:05;15.00;48.20
68354;DHT22;55274;43.060;25.618;2023-02-21T16:48:31;14.80;48.00
68354;DHT22;55274;43.060;25.618;2023-02-21T16:51:02;14.80;48.20
68354;DHT22;55274;43.060;25.618;2023-02-21T16:53:29;14.60;48.50
68354;DHT22;55274;43.060;25.618;2023-02-21T16:55:55;14.50;48.90
68354;DHT22;55274;43.060;25.618;2023-02-21T16:58:32;14.40;49.30
68354;DHT22;55274;43.060;25.618;2023-02-21T17:04:09;14.20;49.00
68354;DHT22;55274;43.060;25.618;2023-02-21T17:06:38;14.10;49.20
68354;DHT22;55274;43.060;25.618;2023-02-21T17:09:04;13.90;49.50
68354;DHT22;55274;43.060;25.618;2023-02-21T17:11:30;13.80;49.50
68354;DHT22;55274;43.060;25.618;2023-02-21T17:13:56;13.80;50.40
68354;DHT22;55274;43.060;25.618;2023-02-21T17:16:21;13.60;50.30
68354;DHT22;55274;43.060;25.618;2023-02-21T17:18:47;13.50;50.30
68354;DHT22;55274;43.060;25.618;2023-02-21T17:21:13;13.40;49.90
68354;DHT22;55274;43.060;25.618;2023-02-21T17:23:40;13.30;50.30
68354;DHT22;55274;43.060;25.618;2023-02-21T17:26:05;13.30;50.20
68354;DHT22;55274;43.060;25.618;2023-02-21T17:28:31;13.20;50.60
68354;DHT22;55274;43.060;25.618;2023-02-21T17:30:59;13.20;50.70
68354;DHT22;55274;43.060;25.618;2023-02-21T17:33:24;13.10;51.10
68354;DHT22;55274;43.060;25.618;2023-02-21T17:35:52;13.00;51.30
68354;DHT22;55274;43.060;25.618;2023-02-21T17:38:17;13.00;51.40
68354;DHT22;55274;43.060;25.618;2023-02-21T17:40:43;12.90;52.00
68354;DHT22;55274;43.060;25.618;2023-02-21T17:43:10;12.80;53.40
68354;DHT22;55274;43.060;25.618;2023-02-21T17:45:36;12.70;54.80
68354;DHT22;55274;43.060;25.618;2023-02-21T17:48:02;12.80;55.10
68354;DHT22;55274;43.060;25.618;2023-02-21T17:50:30;12.50;54.30
68354;DHT22;55274;43.060;25.618;2023-02-21T17:52:56;12.40;53.90
68354;DHT22;55274;43.060;25.618;2023-02-21T17:55:24;12.20;53.50
68354;DHT22;55274;43.060;25.618;2023-02-21T17:57:50;12.20;53.30
68354;DHT22;55274;43.060;25.618;2023-02-21T18:00:23;12.20;55.10
68354;DHT22;55274;43.060;25.618;2023-02-21T18:02:50;12.00;55.00
68354;DHT22;55274;43.060;25.618;2023-02-21T18:05:16;11.90;55.80
68354;DHT22;55274;43.060;25.618;2023-02-21T18:07:47;11.80;55.40
68354;DHT22;55274;43.060;25.618;2023-02-21T18:10:12;11.70;54.80
68354;DHT22;55274;43.060;25.618;2023-02-21T18:12:38;11.60;53.80
68354;DHT22;55274;43.060;25.618;2023-02-21T18:15:05;11.60;54.60
68354;DHT22;55274;43.060;25.618;2023-02-21T18:17:31;11.50;55.20
68354;DHT22;55274;43.060;25.618;2023-02-21T18:19:57;11.40;55.10
68354;DHT22;55274;43.060;25.618;2023-02-21T18:22:23;11.30;54.90
68354;DHT22;55274;43.060;25.618;2023-02-21T18:24:49;11.30;56.30
68354;DHT22;55274;43.060;25.618;2023-02-21T18:27:14;11.30;58.90
68354;DHT22;55274;43.060;25.618;2023-02-21T18:29:40;11.30;58.50
68354;DHT22;55274;43.060;25.618;2023-02-21T18:32:06;11.20;58.10
68354;DHT22;55274;43.060;25.618;2023-02-21T18:34:32;11.10;57.50
68354;DHT22;55274;43.060;25.618;2023-02-21T18:36:58;11.00;56.60
68354;DHT22;55274;43.060;25.618;2023-02-21T18:39:24;11.00;58.00
68354;DHT22;55274;43.060;25.618;2023-02-21T18:41:50;10.90;57.40
68354;DHT22;55274;43.060;25.618;2023-02-21T18:44:17;10.80;57.80
68354;DHT22;55274;43.060;25.618;2023-02-21T18:46:51;10.60;57.60
68354;DHT22;55274;43.060;25.618;2023-02-21T18:49:20;10.50;57.80
68354;DHT22;55274;43.060;25.618;2023-02-21T18:51:46;10.50;58.30
68354;DHT22;55274;43.060;25.618;2023-02-21T18:54:12;10.40;58.30
68354;DHT22;55274;43.060;25.618;2023-02-21T18:56:44;10.30;59.10
68354;DHT22;55274;43.060;25.618;2023-02-21T18:59:10;10.20;59.20
68354;DHT22;55274;43.060;25.618;2023-02-21T19:01:36;10.20;59.90
68354;DHT22;55274;43.060;25.618;2023-02-21T19:04:02;10.20;61.50
68354;DHT22;55274;43.060;25.618;2023-02-21T19:06:28;10.10;61.20
68354;DHT22;55274;43.060;25.618;2023-02-21T19:08:54;10.10;63.60
68354;DHT22;55274;43.060;25.618;2023-02-21T19:11:19;10.10;62.60
68354;DHT22;55274;43.060;25.618;2023-02-21T19:13:45;9.90;62.40
68354;DHT22;55274;43.060;25.618;2023-02-21T19:16:15;9.70;61.90